sensor_id;sensor_type;location;lat;lon;timestamp;temperature;humidity
32600;DHT22;19277;51.778;7.912;2023-05-16T00:00:55;21.30;68.40
32600;DHT22;19277;51.778;7.912;2023-05-16T00:03:22;21.30;68.30
32600;DHT22;19277;51.778;7.912;2023-05-16T00:05:48;21.40;68.30
32600;DHT22;19277;51.778;7.912;2023-05-16T00:08:15;21.40;68.20
32600;DHT22;19277;51.778;7.912;2023-05-16T00:10:41;21.50;68.20
32600;DHT22;19277;51.778;7.912;2023-05-16T00:13:06;21.50;68.20
32600;DHT22;19277;51.778;7.912;2023-05-16T00:15:32;21.60;68.20
32600;DHT22;19277;51.778;7.912;2023-05-16T00:17:58;21.70;68.10
32600;DHT22;19277;51.778;7.912;2023-05-16T00:20:25;21.70;68.20
32600;DHT22;19277;51.778;7.912;2023-05-16T00:22:51;21.70;68.20
32600;DHT22;19277;51.778;7.912;2023-05-16T00:25:17;21.80;68.30
32600;DHT22;19277;51.778;7.912;2023-05-16T00:27:43;21.80;68.30
32600;DHT22;19277;51.778;7.912;2023-05-16T00:30:08;21.80;68.10
32600;DHT22;19277;51.778;7.912;2023-05-16T00:32:35;21.90;68.20
32600;DHT22;19277;51.778;7.912;2023-05-16T00:35:01;21.90;68.30
32600;DHT22;19277;51.778;7.912;2023-05-16T00:37:26;21.90;68.20
32600;DHT22;19277;51.778;7.912;2023-05-16T00:39:52;22.00;68.40
32600;DHT22;19277;51.778;7.912;2023-05-16T00:42:20;21.90;68.40
32600;DHT22;19277;51.778;7.912;2023-05-16T00:44:47;22.00;68.40
32600;DHT22;19277;51.778;7.912;2023-05-16T00:47:13;22.00;68.50
32600;DHT22;19277;51.778;7.912;2023-05-16T00:49:39;22.00;68.40
32600;DHT22;19277;51.778;7.912;2023-05-16T00:52:04;22.00;68.40
32600;DHT22;19277;51.778;7.912;2023-05-16T00:54:30;22.00;68.30
32600;DHT22;19277;51.778;7.912;2023-05-16T00:56:56;22.00;68.20
32600;DHT22;19277;51.778;7.912;2023-05-16T00:59:23;22.00;68.10
32600;DHT22;19277;51.778;7.912;2023-05-16T01:01:50;22.10;68.20
32600;DHT22;19277;51.778;7.912;2023-05-16T01:04:16;22.10;68.30
32600;DHT22;19277;51.778;7.912;2023-05-16T01:06:42;22.10;68.40
32600;DHT22;19277;51.778;7.912;2023-05-16T01:09:08;22.10;68.50
32600;DHT22;19277;51.778;7.912;2023-05-16T01:12:13;22.10;68.60
32600;DHT22;19277;51.778;7.912;2023-05-16T01:17:59;22.10;68.70
32600;DHT22;19277;51.778;7.912;2023-05-16T01:20:48;22.10;68.60
32600;DHT22;19277;51.778;7.912;2023-05-16T01:26:26;22.20;68.90
32600;DHT22;19277;51.778;7.912;2023-05-16T01:28:53;22.10;68.90
32600;DHT22;19277;51.778;7.912;2023-05-16T01:31:20;22.10;69.00
32600;DHT22;19277;51.778;7.912;2023-05-16T01:33:46;22.10;69.10
32600;DHT22;19277;51.778;7.912;2023-05-16T01:36:18;22.10;69.10
32600;DHT22;19277;51.778;7.912;2023-05-16T01:39:06;22.20;69.20
32600;DHT22;19277;51.778;7.912;2023-05-16T01:44:31;22.20;69.30
32600;DHT22;19277;51.778;7.912;2023-05-16T01:47:01;22.20;69.30
32600;DHT22;19277;51.778;7.912;2023-05-16T01:49:40;22.20;69.40
32600;DHT22;19277;51.778;7.912;2023-05-16T01:52:14;22.20;69.50
32600;DHT22;19277;51.778;7.912;2023-05-16T01:54:43;22.20;69.40
32600;DHT22;19277;51.778;7.912;2023-05-16T01:57:09;22.20;69.60
32600;DHT22;19277;51.778;7.912;2023-05-16T01:59:37;22.20;69.60
32600;DHT22;19277;51.778;7.912;2023-05-16T02:02:04;22.20;69.80
32600;DHT22;19277;51.778;7.912;2023-05-16T02:04:30;22.20;69.80
32600;DHT22;19277;51.778;7.912;2023-05-16T02:06:55;22.20;69.90
32600;DHT22;19277;51.778;7.912;2023-05-16T02:09:21;22.20;70.10
32600;DHT22;19277;51.778;7.912;2023-05-16T02:11:47;22.20;70.10
32600;DHT22;19277;51.778;7.912;2023-05-16T02:14:13;22.20;70.40
32600;DHT22;19277;51.778;7.912;2023-05-16T02:16:38;22.20;70.40
32600;DHT22;19277;51.778;7.912;2023-05-16T02:19:04;22.20;70.80
32600;DHT22;19277;51.778;7.912;2023-05-16T02:21:30;22.30;70.80
32600;DHT22;19277;51.778;7.912;2023-05-16T02:23:55;22.30;70.80
32600;DHT22;19277;51.778;7.912;2023-05-16T02:26:21;22.30;70.90
32600;DHT22;19277;51.778;7.912;2023-05-16T02:28:47;22.30;71.10
32600;DHT22;19277;51.778;7.912;2023-05-16T02:31:27;22.30;71.40
32600;DHT22;19277;51.778;7.912;2023-05-16T02:33:53;22.30;71.40
32600;DHT22;19277;51.778;7.912;2023-05-16T02:36:19;22.30;71.40
32600;DHT22;19277;51.778;7.912;2023-05-16T02:38:45;22.30;71.70
32600;DHT22;19277;51.778;7.912;2023-05-16T02:41:11;22.30;71.80
32600;DHT22;19277;51.778;7.912;2023-05-16T02:43:37;22.30;72.00
32600;DHT22;19277;51.778;7.912;2023-05-16T02:46:19;22.30;72.00
32600;DHT22;19277;51.778;7.912;2023-05-16T02:48:45;22.30;72.20
32600;DHT22;19277;51.778;7.912;2023-05-16T02:51:11;22.30;72.10
32600;DHT22;19277;51.778;7.912;2023-05-16T02:53:36;22.30;72.40
32600;DHT22;19277;51.778;7.912;2023-05-16T02:56:02;22.30;72.30
32600;DHT22;19277;51.778;7.912;2023-05-16T02:58:31;22.30;72.50
32600;DHT22;19277;51.778;7.912;2023-05-16T03:00:57;22.30;72.70
32600;DHT22;19277;51.778;7.912;2023-05-16T03:03:22;22.30;72.70
32600;DHT22;19277;51.778;7.912;2023-05-16T03:05:48;22.30;72.90
32600;DHT22;19277;51.778;7.912;2023-05-16T03:08:14;22.30;72.60
32600;DHT22;19277;51.778;7.912;2023-05-16T03:10:40;22.30;72.70
32600;DHT22;19277;51.778;7.912;2023-05-16T03:13:05;22.30;72.70
32600;DHT22;19277;51.778;7.912;2023-05-16T03:15:31;22.30;72.70
32600;DHT22;19277;51.778;7.912;2023-05-16T03:17:56;22.30;72.80
32600;DHT22;19277;51.778;7.912;2023-05-16T03:20:22;22.30;72.90
32600;DHT22;19277;51.778;7.912;2023-05-16T03:22:48;22.30;72.70
32600;DHT22;19277;51.778;7.912;2023-05-16T03:25:13;22.30;72.70
32600;DHT22;19277;51.778;7.912;2023-05-16T03:27:39;22.30;72.50
32600;DHT22;19277;51.778;7.912;2023-05-16T03:30:05;22.30;72.90
32600;DHT22;19277;51.778;7.912;2023-05-16T03:32:37;22.30;72.80
32600;DHT22;19277;51.778;7.912;2023-05-16T03:35:03;22.30;73.10
32600;DHT22;19277;51.778;7.912;2023-05-16T03:37:29;22.30;73.10
32600;DHT22;19277;51.778;7.912;2023-05-16T03:39:54;22.30;73.20
32600;DHT22;19277;51.778;7.912;2023-05-16T03:42:20;22.30;73.20
32600;DHT22;19277;51.778;7.912;2023-05-16T03:44:46;22.30;73.50
32600;DHT22;19277;51.778;7.912;2023-05-16T03:47:11;22.30;74.30
32600;DHT22;19277;51.778;7.912;2023-05-16T03:49:37;22.30;74.20
32600;DHT22;19277;51.778;7.912;2023-05-16T03:52:04;22.30;75.30
32600;DHT22;19277;51.778;7.912;2023-05-16T03:54:30;22.30;74.30
32600;DHT22;19277;51.778;7.912;2023-05-16T03:56:55;22.30;73.90
32600;DHT22;19277;51.778;7.912;2023-05-16T03:59:21;22.30;74.00
32600;DHT22;19277;51.778;7.912;2023-05-16T04:01:46;22.30;73.90
32600;DHT22;19277;51.778;7.912;2023-05-16T04:04:12;22.30;73.70
32600;DHT22;19277;51.778;7.912;2023-05-16T04:06:38;22.40;73.70
32600;DHT22;19277;51.778;7.912;2023-05-16T04:09:04;22.40;73.50
32600;DHT22;19277;51.778;7.912;2023-05-16T04:11:30;22.40;73.40
32600;DHT22;19277;51.778;7.912;2023-05-16T04:13:56;22.40;73.70
32600;DHT22;19277;51.778;7.912;2023-05-16T04:16:23;22.40;73.40
32600;DHT22;19277;51.778;7.912;2023-05-16T04:18:48;22.40;73.30
32600;DHT22;19277;51.778;7.912;2023-05-16T04:21:14;22.40;73.40
32600;DHT22;19277;51.778;7.912;2023-05-16T04:23:40;22.50;73.40
32600;DHT22;19277;51.778;7.912;2023-05-16T04:26:06;22.50;73.50
32600;DHT22;19277;51.778;7.912;2023-05-16T04:28:32;22.50;73.50
32600;DHT22;19277;51.778;7.912;2023-05-16T04:30:57;22.50;73.60
32600;DHT22;19277;51.778;7.912;2023-05-16T04:33:23;22.50;73.60
32600;DHT22;19277;51.778;7.912;2023-05-16T04:35:48;22.60;73.50
32600;DHT22;19277;51.778;7.912;2023-05-16T04:38:14;22.60;73.30
32600;DHT22;19277;51.778;7.912;2023-05-16T04:40:40;22.60;73.50
32600;DHT22;19277;51.778;7.912;2023-05-16T04:43:06;22.60;73.30
32600;DHT22;19277;51.778;7.912;2023-05-16T04:45:32;22.60;73.30
32600;DHT22;19277;51.778;7.912;2023-05-16T04:47:58;22.60;73.50
32600;DHT22;19277;51.778;7.912;2023-05-16T04:50:23;22.60;74.10
32600;DHT22;19277;51.778;7.912;2023-05-16T04:52:49;22.60;73.60
32600;DHT22;19277;51.778;7.912;2023-05-16T04:55:15;22.70;73.80
32600;DHT22;19277;51.778;7.912;2023-05-16T04:57:40;22.70;73.90
32600;DHT22;19277;51.778;7.912;2023-05-16T05:00:07;22.80;74.10
32600;DHT22;19277;51.778;7.912;2023-05-16T05:02:34;22.90;73.90
32600;DHT22;19277;51.778;7.912;2023-05-16T05:05:00;23.00;73.60
32600;DHT22;19277;51.778;7.912;2023-05-16T05:07:25;23.10;73.20
32600;DHT22;19277;51.778;7.912;2023-05-16T05:09:53;23.20;72.70
32600;DHT22;19277;51.778;7.912;2023-05-16T05:12:20;23.40;72.40
32600;DHT22;19277;51.778;7.912;2023-05-16T05:14:46;23.50;72.10
32600;DHT22;19277;51.778;7.912;2023-05-16T05:17:12;23.50;71.60
32600;DHT22;19277;51.778;7.912;2023-05-16T05:19:37;23.60;71.20
32600;DHT22;19277;51.778;7.912;2023-05-16T05:22:03;23.70;71.20
32600;DHT22;19277;51.778;7.912;2023-05-16T05:24:28;23.80;71.00
32600;DHT22;19277;51.778;7.912;2023-05-16T05:26:54;23.90;70.70
32600;DHT22;19277;51.778;7.912;2023-05-16T05:29:20;23.90;70.50
32600;DHT22;19277;51.778;7.912;2023-05-16T05:31:46;24.00;70.40
32600;DHT22;19277;51.778;7.912;2023-05-16T05:34:11;24.10;70.40
32600;DHT22;19277;51.778;7.912;2023-05-16T05:36:37;24.10;70.20
32600;DHT22;19277;51.778;7.912;2023-05-16T05:39:03;24.20;69.80
32600;DHT22;19277;51.778;7.912;2023-05-16T05:41:28;24.20;70.00
32600;DHT22;19277;51.778;7.912;2023-05-16T05:43:54;24.20;69.60
32600;DHT22;19277;51.778;7.912;2023-05-16T05:46:19;24.30;69.70
32600;DHT22;19277;51.778;7.912;2023-05-16T05:48:45;24.30;69.40
32600;DHT22;19277;51.778;7.912;2023-05-16T05:51:11;24.40;69.00
32600;DHT22;19277;51.778;7.912;2023-05-16T05:53:39;24.40;68.80
32600;DHT22;19277;51.778;7.912;2023-05-16T05:56:04;24.40;69.00
32600;DHT22;19277;51.778;7.912;2023-05-16T05:58:30;24.50;69.40
32600;DHT22;19277;51.778;7.912;2023-05-16T06:00:56;24.50;68.30
32600;DHT22;19277;51.778;7.912;2023-05-16T06:03:21;24.60;68.50
32600;DHT22;19277;51.778;7.912;2023-05-16T06:05:47;24.50;68.40
32600;DHT22;19277;51.778;7.912;2023-05-16T06:08:13;24.50;69.10
32600;DHT22;19277;51.778;7.912;2023-05-16T06:10:39;24.50;68.60
32600;DHT22;19277;51.778;7.912;2023-05-16T06:13:04;24.60;68.70
32600;DHT22;19277;51.778;7.912;2023-05-16T06:15:30;24.60;68.50
32600;DHT22;19277;51.778;7.912;2023-05-16T06:17:56;24.60;68.50
32600;DHT22;19277;51.778;7.912;2023-05-16T06:20:22;24.60;68.10
32600;DHT22;19277;51.778;7.912;2023-05-16T06:22:48;24.70;68.10
32600;DHT22;19277;51.778;7.912;2023-05-16T06:25:13;24.60;68.00
32600;DHT22;19277;51.778;7.912;2023-05-16T06:27:39;23.80;54.80
32600;DHT22;19277;51.778;7.912;2023-05-16T06:30:05;22.30;57.10
32600;DHT22;19277;51.778;7.912;2023-05-16T06:32:31;21.30;57.40
32600;DHT22;19277;51.778;7.912;2023-05-16T06:34:56;20.50;59.50
32600;DHT22;19277;51.778;7.912;2023-05-16T06:37:22;20.10;60.70
32600;DHT22;19277;51.778;7.912;2023-05-16T06:39:48;19.70;60.00
32600;DHT22;19277;51.778;7.912;2023-05-16T06:42:13;19.50;59.30
32600;DHT22;19277;51.778;7.912;2023-05-16T06:44:39;19.40;60.30
32600;DHT22;19277;51.778;7.912;2023-05-16T06:47:05;19.40;58.80
32600;DHT22;19277;51.778;7.912;2023-05-16T06:49:32;19.30;61.20
32600;DHT22;19277;51.778;7.912;2023-05-16T06:51:58;19.20;60.90
32600;DHT22;19277;51.778;7.912;2023-05-16T06:54:23;19.30;62.10
32600;DHT22;19277;51.778;7.912;2023-05-16T06:56:49;19.00;61.20
32600;DHT22;19277;51.778;7.912;2023-05-16T06:59:15;19.30;60.80
32600;DHT22;19277;51.778;7.912;2023-05-16T07:01:40;19.40;58.50
32600;DHT22;19277;51.778;7.912;2023-05-16T07:04:06;18.90;58.50
32600;DHT22;19277;51.778;7.912;2023-05-16T07:06:32;18.30;59.60
32600;DHT22;19277;51.778;7.912;2023-05-16T07:08:57;18.30;60.70
32600;DHT22;19277;51.778;7.912;2023-05-16T07:11:23;18.50;61.30
32600;DHT22;19277;51.778;7.912;2023-05-16T07:13:49;18.80;59.80
32600;DHT22;19277;51.778;7.912;2023-05-16T07:16:14;19.00;59.60
32600;DHT22;19277;51.778;7.912;2023-05-16T07:18:40;19.00;59.80
32600;DHT22;19277;51.778;7.912;2023-05-16T07:21:05;19.10;59.00
32600;DHT22;19277;51.778;7.912;2023-05-16T07:23:31;19.20;58.70
32600;DHT22;19277;51.778;7.912;2023-05-16T07:25:57;19.10;58.30
32600;DHT22;19277;51.778;7.912;2023-05-16T07:28:23;19.10;58.20
32600;DHT22;19277;51.778;7.912;2023-05-16T07:30:48;18.90;58.50
32600;DHT22;19277;51.778;7.912;2023-05-16T07:33:14;19.10;59.30
32600;DHT22;19277;51.778;7.912;2023-05-16T07:35:39;19.30;57.30
32600;DHT22;19277;51.778;7.912;2023-05-16T07:38:05;19.10;58.10
32600;DHT22;19277;51.778;7.912;2023-05-16T07:40:30;18.60;58.50
32600;DHT22;19277;51.778;7.912;2023-05-16T07:42:56;18.90;63.30
32600;DHT22;19277;51.778;7.912;2023-05-16T07:45:22;19.30;64.10
32600;DHT22;19277;51.778;7.912;2023-05-16T07:47:48;19.90;64.10
32600;DHT22;19277;51.778;7.912;2023-05-16T07:50:14;20.30;63.90
32600;DHT22;19277;51.778;7.912;2023-05-16T07:52:39;20.70;63.50
32600;DHT22;19277;51.778;7.912;2023-05-16T07:55:05;21.10;63.10
32600;DHT22;19277;51.778;7.912;2023-05-16T07:57:31;21.50;62.90
32600;DHT22;19277;51.778;7.912;2023-05-16T07:59:57;21.80;62.40
32600;DHT22;19277;51.778;7.912;2023-05-16T08:02:23;22.00;62.20
32600;DHT22;19277;51.778;7.912;2023-05-16T08:04:50;22.20;62.30
32600;DHT22;19277;51.778;7.912;2023-05-16T08:07:16;22.30;62.10
32600;DHT22;19277;51.778;7.912;2023-05-16T08:09:41;22.40;62.10
32600;DHT22;19277;51.778;7.912;2023-05-16T08:12:07;22.50;62.20
32600;DHT22;19277;51.778;7.912;2023-05-16T08:14:33;22.50;62.40
32600;DHT22;19277;51.778;7.912;2023-05-16T08:16:59;22.60;62.70
32600;DHT22;19277;51.778;7.912;2023-05-16T08:19:25;22.60;62.90
32600;DHT22;19277;51.778;7.912;2023-05-16T08:21:51;22.60;63.00
32600;DHT22;19277;51.778;7.912;2023-05-16T08:24:16;22.60;63.20
32600;DHT22;19277;51.778;7.912;2023-05-16T08:26:42;22.70;63.50
32600;DHT22;19277;51.778;7.912;2023-05-16T08:29:07;22.70;63.60
32600;DHT22;19277;51.778;7.912;2023-05-16T08:31:33;22.80;63.70
32600;DHT22;19277;51.778;7.912;2023-05-16T08:33:59;22.80;63.70
32600;DHT22;19277;51.778;7.912;2023-05-16T08:36:26;22.90;63.70
32600;DHT22;19277;51.778;7.912;2023-05-16T08:38:53;23.00;63.70
32600;DHT22;19277;51.778;7.912;2023-05-16T08:41:19;23.00;63.70
32600;DHT22;19277;51.778;7.912;2023-05-16T08:43:46;23.00;63.80
32600;DHT22;19277;51.778;7.912;2023-05-16T08:46:12;23.00;63.80
32600;DHT22;19277;51.778;7.912;2023-05-16T08:48:37;23.10;64.00
32600;DHT22;19277;51.778;7.912;2023-05-16T08:51:07;23.10;64.00
32600;DHT22;19277;51.778;7.912;2023-05-16T08:53:39;23.10;64.00
32600;DHT22;19277;51.778;7.912;2023-05-16T08:56:06;23.10;64.30
32600;DHT22;19277;51.778;7.912;2023-05-16T08:58:33;23.10;64.60
32600;DHT22;19277;51.778;7.912;2023-05-16T09:00:58;23.10;64.60
32600;DHT22;19277;51.778;7.912;2023-05-16T09:03:24;23.20;64.50
32600;DHT22;19277;51.778;7.912;2023-05-16T09:05:50;23.20;64.70
32600;DHT22;19277;51.778;7.912;2023-05-16T09:08:16;23.20;64.80
32600;DHT22;19277;51.778;7.912;2023-05-16T09:10:42;23.20;64.80
32600;DHT22;19277;51.778;7.912;2023-05-16T09:13:07;23.20;64.80
32600;DHT22;19277;51.778;7.912;2023-05-16T09:15:33;23.20;64.70
32600;DHT22;19277;51.778;7.912;2023-05-16T09:18:02;23.20;64.90
32600;DHT22;19277;51.778;7.912;2023-05-16T09:20:29;23.20;65.10
32600;DHT22;19277;51.778;7.912;2023-05-16T09:22:57;23.30;65.10
32600;DHT22;19277;51.778;7.912;2023-05-16T09:25:27;23.30;65.10
32600;DHT22;19277;51.778;7.912;2023-05-16T09:27:58;23.40;65.50
32600;DHT22;19277;51.778;7.912;2023-05-16T09:30:32;23.40;65.40
32600;DHT22;19277;51.778;7.912;2023-05-16T09:32:58;23.40;65.10
32600;DHT22;19277;51.778;7.912;2023-05-16T09:35:25;23.50;65.00
32600;DHT22;19277;51.778;7.912;2023-05-16T09:37:51;23.50;65.10
32600;DHT22;19277;51.778;7.912;2023-05-16T09:40:20;23.40;65.00
32600;DHT22;19277;51.778;7.912;2023-05-16T09:42:46;23.40;65.20
32600;DHT22;19277;51.778;7.912;2023-05-16T09:45:13;23.40;65.30
32600;DHT22;19277;51.778;7.912;2023-05-16T09:47:39;23.40;65.20
32600;DHT22;19277;51.778;7.912;2023-05-16T09:50:13;23.40;65.30
32600;DHT22;19277;51.778;7.912;2023-05-16T09:52:40;23.40;65.50
32600;DHT22;19277;51.778;7.912;2023-05-16T09:55:07;23.50;65.40
32600;DHT22;19277;51.778;7.912;2023-05-16T09:57:36;23.50;65.50
32600;DHT22;19277;51.778;7.912;2023-05-16T10:00:09;23.50;65.50
32600;DHT22;19277;51.778;7.912;2023-05-16T10:02:36;23.50;65.60
32600;DHT22;19277;51.778;7.912;2023-05-16T10:05:02;23.50;65.60
32600;DHT22;19277;51.778;7.912;2023-05-16T10:07:30;23.50;65.70
32600;DHT22;19277;51.778;7.912;2023-05-16T10:09:59;23.50;65.80
32600;DHT22;19277;51.778;7.912;2023-05-16T10:12:29;23.50;65.60
32600;DHT22;19277;51.778;7.912;2023-05-16T10:14:56;23.50;65.80
32600;DHT22;19277;51.778;7.912;2023-05-16T10:17:22;23.50;65.90
32600;DHT22;19277;51.778;7.912;2023-05-16T10:19:49;23.50;66.10
32600;DHT22;19277;51.778;7.912;2023-05-16T10:22:17;23.50;66.30
32600;DHT22;19277;51.778;7.912;2023-05-16T10:24:55;23.60;66.00
32600;DHT22;19277;51.778;7.912;2023-05-16T10:27:23;23.60;65.80
32600;DHT22;19277;51.778;7.912;2023-05-16T10:29:50;23.60;65.70
32600;DHT22;19277;51.778;7.912;2023-05-16T10:32:17;23.70;65.60
32600;DHT22;19277;51.778;7.912;2023-05-16T10:34:44;23.60;65.50
32600;DHT22;19277;51.778;7.912;2023-05-16T10:37:10;23.60;65.50
32600;DHT22;19277;51.778;7.912;2023-05-16T10:39:37;23.60;65.70
32600;DHT22;19277;51.778;7.912;2023-05-16T10:42:05;23.60;65.60
32600;DHT22;19277;51.778;7.912;2023-05-16T10:44:32;23.60;65.80
32600;DHT22;19277;51.778;7.912;2023-05-16T10:47:00;23.60;65.80
32600;DHT22;19277;51.778;7.912;2023-05-16T10:49:30;23.60;66.00
32600;DHT22;19277;51.778;7.912;2023-05-16T10:52:16;23.60;66.00
32600;DHT22;19277;51.778;7.912;2023-05-16T10:54:48;23.60;66.00
32600;DHT22;19277;51.778;7.912;2023-05-16T10:57:18;23.70;66.00
32600;DHT22;19277;51.778;7.912;2023-05-16T10:59:48;23.70;66.00
32600;DHT22;19277;51.778;7.912;2023-05-16T11:02:25;23.80;66.00
32600;DHT22;19277;51.778;7.912;2023-05-16T11:04:53;23.80;65.90
32600;DHT22;19277;51.778;7.912;2023-05-16T11:07:20;23.80;66.00
32600;DHT22;19277;51.778;7.912;2023-05-16T11:10:23;23.90;66.00
32600;DHT22;19277;51.778;7.912;2023-05-16T11:12:50;23.90;65.90
32600;DHT22;19277;51.778;7.912;2023-05-16T11:15:18;23.90;60.30
32600;DHT22;19277;51.778;7.912;2023-05-16T11:17:44;22.80;49.80
32600;DHT22;19277;51.778;7.912;2023-05-16T11:20:29;22.00;51.40
32600;DHT22;19277;51.778;7.912;2023-05-16T11:25:42;21.10;51.70
32600;DHT22;19277;51.778;7.912;2023-05-16T11:28:11;20.60;52.60
32600;DHT22;19277;51.778;7.912;2023-05-16T11:30:48;20.20;53.40
32600;DHT22;19277;51.778;7.912;2023-05-16T11:33:15;20.10;53.40
32600;DHT22;19277;51.778;7.912;2023-05-16T11:35:41;19.80;53.70
32600;DHT22;19277;51.778;7.912;2023-05-16T11:38:12;19.60;54.20
32600;DHT22;19277;51.778;7.912;2023-05-16T11:40:42;19.60;55.60
32600;DHT22;19277;51.778;7.912;2023-05-16T11:43:08;19.80;54.40
32600;DHT22;19277;51.778;7.912;2023-05-16T11:45:34;19.70;53.80
32600;DHT22;19277;51.778;7.912;2023-05-16T11:48:03;19.50;53.20
32600;DHT22;19277;51.778;7.912;2023-05-16T11:50:29;19.60;54.50
32600;DHT22;19277;51.778;7.912;2023-05-16T11:52:58;19.40;54.20
32600;DHT22;19277;51.778;7.912;2023-05-16T11:55:25;19.60;52.80
32600;DHT22;19277;51.778;7.912;2023-05-16T11:57:52;19.70;51.80
32600;DHT22;19277;51.778;7.912;2023-05-16T12:00:20;19.60;52.90
32600;DHT22;19277;51.778;7.912;2023-05-16T12:02:47;19.60;53.30
32600;DHT22;19277;51.778;7.912;2023-05-16T12:05:14;19.80;51.60
32600;DHT22;19277;51.778;7.912;2023-05-16T12:07:42;19.80;50.00
32600;DHT22;19277;51.778;7.912;2023-05-16T12:10:10;19.80;51.20
32600;DHT22;19277;51.778;7.912;2023-05-16T12:12:37;19.80;50.90
32600;DHT22;19277;51.778;7.912;2023-05-16T12:15:04;19.90;51.10
32600;DHT22;19277;51.778;7.912;2023-05-16T12:17:32;19.70;50.90
32600;DHT22;19277;51.778;7.912;2023-05-16T12:19:58;19.60;51.20
32600;DHT22;19277;51.778;7.912;2023-05-16T12:22:24;19.60;50.60
32600;DHT22;19277;51.778;7.912;2023-05-16T12:24:50;19.50;50.60
32600;DHT22;19277;51.778;7.912;2023-05-16T12:27:23;19.30;50.70
32600;DHT22;19277;51.778;7.912;2023-05-16T12:29:49;19.20;52.20
32600;DHT22;19277;51.778;7.912;2023-05-16T12:32:19;19.20;51.40
32600;DHT22;19277;51.778;7.912;2023-05-16T12:34:52;19.30;52.00
32600;DHT22;19277;51.778;7.912;2023-05-16T12:37:19;19.40;52.10
32600;DHT22;19277;51.778;7.912;2023-05-16T12:39:45;19.50;52.00
32600;DHT22;19277;51.778;7.912;2023-05-16T12:42:13;19.50;52.00
32600;DHT22;19277;51.778;7.912;2023-05-16T12:44:39;19.40;52.60
32600;DHT22;19277;51.778;7.912;2023-05-16T12:47:11;19.40;53.10
32600;DHT22;19277;51.778;7.912;2023-05-16T12:49:46;19.40;52.30
32600;DHT22;19277;51.778;7.912;2023-05-16T12:52:18;19.50;53.70
32600;DHT22;19277;51.778;7.912;2023-05-16T12:54:45;19.50;51.90
32600;DHT22;19277;51.778;7.912;2023-05-16T12:57:11;19.40;50.60
32600;DHT22;19277;51.778;7.912;2023-05-16T12:59:37;19.30;50.70
32600;DHT22;19277;51.778;7.912;2023-05-16T13:02:03;19.30;51.30
32600;DHT22;19277;51.778;7.912;2023-05-16T13:04:29;19.30;50.00
32600;DHT22;19277;51.778;7.912;2023-05-16T13:06:54;19.40;50.70
32600;DHT22;19277;51.778;7.912;2023-05-16T13:09:21;19.50;49.20
32600;DHT22;19277;51.778;7.912;2023-05-16T13:11:47;19.50;49.60
32600;DHT22;19277;51.778;7.912;2023-05-16T13:14:13;19.50;50.00
32600;DHT22;19277;51.778;7.912;2023-05-16T13:16:39;19.50;50.40
32600;DHT22;19277;51.778;7.912;2023-05-16T13:19:04;19.60;50.00
32600;DHT22;19277;51.778;7.912;2023-05-16T13:21:30;19.50;49.40
32600;DHT22;19277;51.778;7.912;2023-05-16T13:23:57;19.40;49.60
32600;DHT22;19277;51.778;7.912;2023-05-16T13:26:23;19.40;49.70
32600;DHT22;19277;51.778;7.912;2023-05-16T13:28:49;19.40;49.00
32600;DHT22;19277;51.778;7.912;2023-05-16T13:31:17;19.40;50.60
32600;DHT22;19277;51.778;7.912;2023-05-16T13:33:43;19.70;55.30
32600;DHT22;19277;51.778;7.912;2023-05-16T13:36:10;20.10;56.00
32600;DHT22;19277;51.778;7.912;2023-05-16T13:38:35;20.40;56.40
32600;DHT22;19277;51.778;7.912;2023-05-16T13:41:01;20.70;56.50
32600;DHT22;19277;51.778;7.912;2023-05-16T13:43:27;21.10;56.60
32600;DHT22;19277;51.778;7.912;2023-05-16T13:45:52;21.30;56.60
32600;DHT22;19277;51.778;7.912;2023-05-16T13:48:18;21.50;56.80
32600;DHT22;19277;51.778;7.912;2023-05-16T13:50:44;21.70;56.90
32600;DHT22;19277;51.778;7.912;2023-05-16T13:53:09;21.90;57.20
32600;DHT22;19277;51.778;7.912;2023-05-16T13:55:35;22.00;57.20
32600;DHT22;19277;51.778;7.912;2023-05-16T13:58:01;22.10;57.40
32600;DHT22;19277;51.778;7.912;2023-05-16T14:00:27;22.10;57.40
32600;DHT22;19277;51.778;7.912;2023-05-16T14:02:53;22.20;57.50
32600;DHT22;19277;51.778;7.912;2023-05-16T14:05:18;22.30;57.90
32600;DHT22;19277;51.778;7.912;2023-05-16T14:07:44;22.30;58.00
32600;DHT22;19277;51.778;7.912;2023-05-16T14:10:10;22.40;58.10
32600;DHT22;19277;51.778;7.912;2023-05-16T14:12:35;22.40;58.30
32600;DHT22;19277;51.778;7.912;2023-05-16T14:15:02;22.50;58.60
32600;DHT22;19277;51.778;7.912;2023-05-16T14:17:28;22.50;58.60
32600;DHT22;19277;51.778;7.912;2023-05-16T14:19:53;22.60;58.80
32600;DHT22;19277;51.778;7.912;2023-05-16T14:22:19;22.70;58.80
32600;DHT22;19277;51.778;7.912;2023-05-16T14:24:45;22.70;58.80
32600;DHT22;19277;51.778;7.912;2023-05-16T14:27:10;22.80;58.80
32600;DHT22;19277;51.778;7.912;2023-05-16T14:29:36;22.80;58.80
32600;DHT22;19277;51.778;7.912;2023-05-16T14:32:02;22.90;59.00
32600;DHT22;19277;51.778;7.912;2023-05-16T14:34:27;22.90;59.10
32600;DHT22;19277;51.778;7.912;2023-05-16T14:36:53;22.90;59.10
32600;DHT22;19277;51.778;7.912;2023-05-16T14:39:18;22.90;59.20
32600;DHT22;19277;51.778;7.912;2023-05-16T14:41:44;23.00;59.40
32600;DHT22;19277;51.778;7.912;2023-05-16T14:44:10;23.00;59.40
32600;DHT22;19277;51.778;7.912;2023-05-16T14:46:35;22.90;59.70
32600;DHT22;19277;51.778;7.912;2023-05-16T14:49:01;23.00;59.90
32600;DHT22;19277;51.778;7.912;2023-05-16T14:51:26;22.90;60.00
32600;DHT22;19277;51.778;7.912;2023-05-16T14:53:52;22.90;60.10
32600;DHT22;19277;51.778;7.912;2023-05-16T14:56:18;22.90;60.30
32600;DHT22;19277;51.778;7.912;2023-05-16T14:58:43;22.90;60.50
32600;DHT22;19277;51.778;7.912;2023-05-16T15:01:09;22.90;60.60
32600;DHT22;19277;51.778;7.912;2023-05-16T15:03:35;22.90;60.80
32600;DHT22;19277;51.778;7.912;2023-05-16T15:06:01;22.90;60.90
32600;DHT22;19277;51.778;7.912;2023-05-16T15:08:27;22.90;61.10
32600;DHT22;19277;51.778;7.912;2023-05-16T15:10:52;22.90;61.10
32600;DHT22;19277;51.778;7.912;2023-05-16T15:13:18;22.90;61.20
32600;DHT22;19277;51.778;7.912;2023-05-16T15:15:43;23.00;61.40
32600;DHT22;19277;51.778;7.912;2023-05-16T15:18:09;23.00;61.50
32600;DHT22;19277;51.778;7.912;2023-05-16T15:20:36;23.00;61.40
32600;DHT22;19277;51.778;7.912;2023-05-16T15:23:01;23.10;61.50
32600;DHT22;19277;51.778;7.912;2023-05-16T15:25:27;23.10;61.60
32600;DHT22;19277;51.778;7.912;2023-05-16T15:27:52;23.10;61.60
32600;DHT22;19277;51.778;7.912;2023-05-16T15:30:18;23.20;61.60
32600;DHT22;19277;51.778;7.912;2023-05-16T15:32:43;23.20;61.80
32600;DHT22;19277;51.778;7.912;2023-05-16T15:35:09;23.20;61.80
32600;DHT22;19277;51.778;7.912;2023-05-16T15:37:35;23.30;61.70
32600;DHT22;19277;51.778;7.912;2023-05-16T15:40:00;23.30;61.70